San Miguel — WTE9527 — position and weather

sailwx.info

Track history (hours):
 
Tides and Currents Weather Stations Pressure Air Temp Water Temp Dewpoint Dewpoint Depression Visibility Wind Speed Wind Dir Waves Ship Positions

San Miguel

Owner: BUFFALO MARINE SERVICE INC, HOUSTON, TX. More information available from US FCC via Universal Licensing System and Coast Guard Vessel Documentation Center.

Last reported at 2017-Oct-22 06:26 UTC. Time now 2017-Oct-23 06:09 UTC.
Position N 29°46' W 095°05'.

Length 10 m; draft 2.5 m.

Type: Tug. MMSI: 366941840.

Date/timePositionNaut miles runAvg speedWind from/ knotsBaromVisibWave heightAir tempDewpointWater temp
2017-Oct-22 06:26N 29°46' W 095°05'3 6.9
2017-Oct-22 05:57N 29°44' W 095°02'3 6.2
2017-Oct-22 05:30N 29°42' W 094°59'4 7.7
2017-Oct-22 05:00N 29°38' W 094°58'2 5.0
2017-Oct-22 04:30N 29°37' W 095°00'0 0.0
2017-Oct-22 04:00N 29°37' W 095°00'0 0.0
2017-Oct-22 03:30N 29°37' W 095°00'0 0.0
2017-Oct-22 03:00N 29°37' W 095°00'0 0.0
2017-Oct-22 02:30N 29°37' W 095°00'0 0.0
2017-Oct-22 02:00N 29°37' W 095°00'0 0.0
2017-Oct-22 01:30N 29°37' W 095°00'0 0.0
2017-Oct-22 01:00N 29°37' W 095°00'0 0.0
2017-Oct-22 00:30N 29°37' W 095°00'0 0.0
2017-Oct-22 00:00N 29°37' W 095°00'0 0.0
2017-Oct-21 23:30N 29°37' W 095°00'1 1.5
2017-Oct-21 23:00N 29°37' W 095°01'3 5.0
2017-Oct-21 22:30N 29°37' W 094°58'3 6.1
2017-Oct-21 22:00N 29°40' W 094°59'4 6.8
2017-Oct-21 21:29N 29°43' W 095°01'4 6.7
2017-Oct-21 20:53N 29°46' W 095°04'2 6.5
2017-Oct-21 20:30N 29°44' W 095°07'5 7.0
2017-Oct-21 19:51N 29°44' W 095°12'3 7.1
2017-Oct-21 19:29N 29°43' W 095°15'2 3.1
2017-Oct-21 19:00N 29°43' W 095°16'0 0.2
2017-Oct-21 18:30N 29°43' W 095°17'0 0.0
2017-Oct-21 17:59N 29°43' W 095°17'0 0.0
2017-Oct-21 17:30N 29°43' W 095°17'0 0.0
2017-Oct-21 17:00N 29°43' W 095°17'0 0.0
2017-Oct-21 16:30N 29°43' W 095°17'0 0.0
2017-Oct-21 16:00N 29°43' W 095°17'0 0.0
2017-Oct-21 15:28N 29°43' W 095°17'0 0.0
2017-Oct-21 15:00N 29°43' W 095°17'0 0.0
2017-Oct-21 14:30N 29°43' W 095°17'0 0.0
2017-Oct-21 13:30N 29°43' W 095°17'0 0.0
2017-Oct-21 12:44N 29°43' W 095°17'0 0.0
2017-Oct-21 12:28N 29°43' W 095°17'0 0.0
2017-Oct-21 11:59N 29°43' W 095°17'0 0.0
2017-Oct-21 11:30N 29°43' W 095°17'0 0.0
2017-Oct-21 11:00N 29°43' W 095°17'0 0.0
2017-Oct-21 10:29N 29°43' W 095°17'0 0.0
2017-Oct-21 09:55N 29°43' W 095°17'1 1.2
2017-Oct-21 09:30N 29°43' W 095°16'3 5.6
2017-Oct-21 08:58N 29°44' W 095°13'1 1.1
2017-Oct-21 08:24N 29°44' W 095°12'0 0.1
2017-Oct-21 08:00N 29°44' W 095°12'0 0.1
2017-Oct-21 07:30N 29°44' W 095°12'0 0.0
2017-Oct-21 07:00N 29°44' W 095°12'0 0.0
2017-Oct-21 06:16N 29°44' W 095°12'0 0.1
2017-Oct-21 05:58N 29°44' W 095°12'0 0.0
2017-Oct-21 05:30N 29°44' W 095°12'0 0.0
2017-Oct-21 05:00N 29°44' W 095°12'0 0.0
2017-Oct-21 04:30N 29°44' W 095°12'0 0.0
2017-Oct-21 04:00N 29°44' W 095°12'0 0.0
2017-Oct-21 03:30N 29°44' W 095°12'0 0.0
2017-Oct-21 03:00N 29°44' W 095°12'0 0.0
2017-Oct-21 02:29N 29°44' W 095°12'0 0.0
2017-Oct-21 02:00N 29°44' W 095°12'0 0.0
2017-Oct-21 01:30N 29°44' W 095°12'0 0.0
2017-Oct-21 01:00N 29°44' W 095°12'0 0.0
2017-Oct-21 00:27N 29°44' W 095°12'0 0.0
2017-Oct-20 23:14N 29°44' W 095°12'0 0.1
2017-Oct-20 23:00N 29°44' W 095°12'1 1.1
2017-Oct-20 22:25N 29°44' W 095°13'2 4.9
2017-Oct-20 21:59N 29°43' W 095°15'1 2.7
2017-Oct-20 21:30N 29°43' W 095°16'0 0.1
2017-Oct-20 19:49N 29°43' W 095°17'0 0.0
2017-Oct-20 19:21N 29°43' W 095°17'0 0.0
2017-Oct-20 18:55N 29°43' W 095°17'0 0.0
2017-Oct-20 18:21N 29°43' W 095°17'0 0.0
2017-Oct-20 14:39N 29°43' W 095°17'0 0.0
2017-Oct-20 13:54N 29°43' W 095°17'0 0.0
2017-Oct-20 13:20N 29°43' W 095°17'0 0.0
2017-Oct-20 12:58N 29°43' W 095°17'0 0.0
2017-Oct-20 12:27N 29°43' W 095°17'0 0.0
2017-Oct-20 11:38N 29°43' W 095°17'0 0.0
2017-Oct-20 11:25N 29°43' W 095°17'0 0.0
2017-Oct-20 10:57N 29°43' W 095°17'0 0.0
2017-Oct-20 10:26N 29°43' W 095°17'0 0.0
2017-Oct-20 09:49N 29°43' W 095°17'0 0.0
2017-Oct-20 09:18N 29°43' W 095°17'0 0.0
2017-Oct-20 08:25N 29°43' W 095°17'0 0.0
2017-Oct-20 07:34N 29°43' W 095°17'0 0.0
2017-Oct-20 07:24N 29°43' W 095°17'0 0.0
2017-Oct-20 06:09N 29°43' W 095°17'0 0.0
2017-Oct-20 06:00N 29°43' W 095°17'0 0.0
2017-Oct-20 05:29N 29°43' W 095°17'0 0.0
2017-Oct-20 05:00N 29°43' W 095°17'0 0.0
2017-Oct-20 04:29N 29°43' W 095°17'0 0.0
2017-Oct-20 04:00N 29°43' W 095°17'0 0.0
2017-Oct-20 03:27N 29°43' W 095°17'0 0.0
2017-Oct-20 03:00N 29°43' W 095°17'0 0.0
2017-Oct-20 02:30N 29°43' W 095°17'0 0.0
2017-Oct-20 02:00N 29°43' W 095°17'0 0.0
2017-Oct-20 01:30N 29°43' W 095°17'0 0.0
2017-Oct-20 00:57N 29°43' W 095°17'0 0.7
2017-Oct-20 00:30N 29°43' W 095°16'0 0.6
2017-Oct-20 00:00N 29°43' W 095°17'0 0.0
2017-Oct-19 23:29N 29°43' W 095°17'0 0.0
2017-Oct-19 23:00N 29°43' W 095°17'0 0.0
2017-Oct-19 22:29N 29°43' W 095°17'0 0.0
2017-Oct-19 21:59N 29°43' W 095°17'0 0.0
2017-Oct-19 21:30N 29°43' W 095°17'0 0.0
2017-Oct-19 20:59N 29°43' W 095°17'0 0.0
2017-Oct-19 20:13N 29°43' W 095°17'0 0.0
2017-Oct-19 19:49N 29°43' W 095°17'0 0.0
2017-Oct-19 18:25N 29°43' W 095°17'0 0.0
2017-Oct-19 17:38N 29°43' W 095°17'0 0.0
2017-Oct-19 17:26N 29°43' W 095°17'0 0.0
2017-Oct-19 15:52N 29°43' W 095°17'0 0.0
2017-Oct-19 15:30N 29°43' W 095°17'0 0.0
2017-Oct-19 14:59N 29°43' W 095°17'0 0.0
2017-Oct-19 14:28N 29°43' W 095°17'0 0.0
2017-Oct-19 13:58N 29°43' W 095°17'0 0.0
2017-Oct-19 12:11N 29°43' W 095°17'0 0.0
2017-Oct-19 11:56N 29°43' W 095°17'0 0.0
2017-Oct-19 11:30N 29°43' W 095°17'0 0.0
2017-Oct-19 10:57N 29°43' W 095°17'0 0.0
2017-Oct-19 09:30N 29°43' W 095°17'0 0.0
2017-Oct-19 08:58N 29°43' W 095°17'0 0.0
2017-Oct-19 08:07N 29°43' W 095°17'0 0.0
2017-Oct-19 07:58N 29°43' W 095°17'0 0.0
2017-Oct-19 07:30N 29°43' W 095°17'0 0.0
2017-Oct-19 06:59N 29°43' W 095°17'0 0.0
2017-Oct-19 06:27N 29°43' W 095°17'0 0.0
2017-Oct-19 05:59N 29°43' W 095°17'0 0.0
2017-Oct-19 05:30N 29°43' W 095°17'0 0.0
2017-Oct-19 04:46N 29°43' W 095°17'0 0.0
2017-Oct-19 04:30N 29°43' W 095°17'0 0.0
2017-Oct-19 04:00N 29°43' W 095°17'0 0.0
2017-Oct-19 03:30N 29°43' W 095°17'0 0.0
2017-Oct-19 03:00N 29°43' W 095°17'0 0.0
2017-Oct-19 02:30N 29°43' W 095°17'0 0.0
2017-Oct-19 01:59N 29°43' W 095°17'0 0.0
2017-Oct-19 01:30N 29°43' W 095°17'0 0.0
2017-Oct-19 01:00N 29°43' W 095°17'0 0.0
2017-Oct-19 00:29N 29°43' W 095°17'0 0.0
2017-Oct-19 00:00N 29°43' W 095°17'0 0.0
2017-Oct-18 23:30N 29°43' W 095°17'0 0.0
2017-Oct-18 23:00N 29°43' W 095°17'0 0.0
2017-Oct-18 22:30N 29°43' W 095°17'0 0.0
2017-Oct-18 21:59N 29°43' W 095°17'0 0.0
2017-Oct-18 21:28N 29°43' W 095°17'0 0.0
2017-Oct-18 20:59N 29°43' W 095°17'0 0.0
2017-Oct-18 20:26N 29°43' W 095°17'0 0.0
2017-Oct-18 18:57N 29°43' W 095°17'0 0.0
2017-Oct-18 17:56N 29°43' W 095°17'0 0.0
2017-Oct-18 17:21N 29°43' W 095°17'0 0.5
2017-Oct-18 17:00N 29°43' W 095°16'6 4.9
2017-Oct-18 15:49N 29°45' W 095°10'3 0.4
2017-Oct-18 06:36N 29°45' W 095°06'0 3.1
2017-Oct-18 06:27N 29°45' W 095°06'3 6.4
2017-Oct-18 06:00N 29°45' W 095°10'3 6.4
2017-Oct-18 05:30N 29°43' W 095°13'3 5.7
2017-Oct-18 05:00N 29°43' W 095°16'0 0.1
2017-Oct-18 04:30N 29°43' W 095°17'0 0.0
2017-Oct-18 03:59N 29°43' W 095°17'0 0.0
2017-Oct-18 03:30N 29°43' W 095°17'0 0.0
2017-Oct-18 03:00N 29°43' W 095°17'0 0.0
2017-Oct-18 02:19N 29°43' W 095°17'0 0.0
2017-Oct-18 01:57N 29°43' W 095°17'0 0.0
2017-Oct-18 01:29N 29°43' W 095°17'0 0.0
2017-Oct-18 01:00N 29°43' W 095°17'0 0.1
2017-Oct-18 00:30N 29°43' W 095°16'2 3.7
2017-Oct-18 00:00N 29°45' W 095°17'0 0.0
2017-Oct-17 23:30N 29°45' W 095°17'0 0.0
2017-Oct-17 23:00N 29°45' W 095°17'0 0.0
2017-Oct-17 22:30N 29°45' W 095°17'0 0.3
2017-Oct-17 22:00N 29°45' W 095°17'2 3.5
2017-Oct-17 21:30N 29°43' W 095°17'0 0.0
2017-Oct-17 20:52N 29°43' W 095°17'0 0.0
2017-Oct-17 20:27N 29°43' W 095°17'0 0.0
2017-Oct-17 19:56N 29°43' W 095°17'0 0.0
2017-Oct-17 18:46N 29°43' W 095°17'0 0.0
2017-Oct-17 17:35N 29°43' W 095°17'0 0.1
2017-Oct-17 16:31N 29°43' W 095°16'0 4.6
2017-Oct-17 16:30N 29°43' W 095°16'1 1.9
2017-Oct-17 15:59N 29°44' W 095°17'1 1.9
2017-Oct-17 15:27N 29°43' W 095°17'0 0.0
2017-Oct-17 14:58N 29°43' W 095°17'0 0.0
2017-Oct-17 14:27N 29°43' W 095°17'2 3.8
2017-Oct-17 13:59N 29°45' W 095°17'2 3.5
2017-Oct-17 13:29N 29°43' W 095°17'0 0.0
2017-Oct-17 12:56N 29°43' W 095°17'0 0.0
2017-Oct-17 12:21N 29°43' W 095°17'0 0.0
2017-Oct-17 11:57N 29°43' W 095°17'0 0.0
2017-Oct-17 05:21N 29°43' W 095°17'0 0.0
2017-Oct-17 04:53N 29°43' W 095°17'0 0.0
2017-Oct-17 04:25N 29°43' W 095°17'0 0.0
2017-Oct-17 03:02N 29°43' W 095°17'0 0.0
2017-Oct-17 02:54N 29°43' W 095°17'0 0.0
2017-Oct-16 23:08N 29°43' W 095°17'0 0.0
2017-Oct-16 22:59N 29°43' W 095°17'2 3.8
2017-Oct-16 22:30N 29°45' W 095°17'0 0.0
2017-Oct-16 21:59N 29°45' W 095°17'0 0.0
2017-Oct-16 21:27N 29°45' W 095°17'0 0.0
2017-Oct-16 21:00N 29°45' W 095°17'0 0.0
2017-Oct-16 20:30N 29°45' W 095°17'2 3.0
2017-Oct-16 20:00N 29°44' W 095°16'0 0.6
2017-Oct-16 19:26N 29°43' W 095°16'0 0.2
2017-Oct-16 19:00N 29°43' W 095°16'1 1.5
2017-Oct-16 18:29N 29°44' W 095°15'2 3.4
2017-Oct-16 18:00N 29°44' W 095°14'4 4.6
2017-Oct-16 17:13N 29°44' W 095°10'2 5.1
2017-Oct-16 16:50N 29°44' W 095°07'4 3.4
2017-Oct-16 15:44N 29°44' W 095°03'0 0.0
2017-Oct-16 11:13N 29°44' W 095°03'0 0.0
2017-Oct-16 10:56N 29°44' W 095°03'0 0.0
2017-Oct-16 10:30N 29°44' W 095°03'0 0.0
2017-Oct-16 09:58N 29°44' W 095°03'0 0.0
2017-Oct-16 09:18N 29°44' W 095°03'0 0.0
2017-Oct-16 08:58N 29°44' W 095°03'0 0.0
2017-Oct-16 08:29N 29°44' W 095°03'0 0.0
2017-Oct-16 08:00N 29°44' W 095°03'0 0.0
2017-Oct-16 07:26N 29°44' W 095°03'0 0.0
2017-Oct-16 06:55N 29°44' W 095°03'0 0.2
2017-Oct-16 06:30N 29°44' W 095°03'0 0.0
2017-Oct-16 02:04N 29°44' W 095°03'0 0.0
2017-Oct-16 00:48N 29°44' W 095°03'0 0.0
2017-Oct-16 00:29N 29°44' W 095°03'0 0.0
2017-Oct-15 23:56N 29°44' W 095°03'0 0.0
2017-Oct-15 23:29N 29°44' W 095°03'0 0.0
2017-Oct-15 22:42N 29°44' W 095°03'0 0.0
2017-Oct-15 21:20N 29°44' W 095°03'0 0.0
2017-Oct-15 20:54N 29°44' W 095°03'0 0.0
2017-Oct-15 20:17N 29°44' W 095°03'0 0.0
2017-Oct-15 19:56N 29°44' W 095°03'0 0.0
2017-Oct-15 19:24N 29°44' W 095°03'0 0.0
2017-Oct-15 18:52N 29°44' W 095°03'0 0.0
2017-Oct-15 18:18N 29°44' W 095°03'0 0.0
2017-Oct-15 17:56N 29°44' W 095°03'4 0.3
2017-Oct-15 07:42N 29°46' W 095°06'1 2.0
2017-Oct-15 07:19N 29°46' W 095°05'0 1.6
2017-Oct-15 07:00N 29°45' W 095°06'1 0.1
2017-Oct-14 18:49N 29°47' W 095°06'0 0.0
2017-Oct-14 17:57N 29°47' W 095°06'0 0.0
2017-Oct-14 17:29N 29°47' W 095°06'0 0.0
2017-Oct-14 17:00N 29°47' W 095°06'0 0.0
2017-Oct-14 16:30N 29°47' W 095°06'0 0.0
2017-Oct-14 15:57N 29°47' W 095°06'0 0.0
2017-Oct-14 15:29N 29°47' W 095°06'0 0.0
2017-Oct-14 06:05N 29°46' W 095°06'0 0.4
2017-Oct-14 05:54N 29°47' W 095°06'0 0.1
2017-Oct-14 05:25N 29°47' W 095°06'0 0.5
2017-Oct-14 04:58N 29°46' W 095°06'2 3.0
2017-Oct-14 04:24N 29°45' W 095°06'3 0.3
2017-Oct-13 20:07N 29°44' W 095°03'2 5.7
2017-Oct-13 19:47N 29°43' W 095°01'1 5.0
2017-Oct-13 19:30N 29°42' W 095°00'1 0.4
2017-Oct-13 16:40N 29°41' W 094°60'0 0.0
2017-Oct-13 16:27N 29°41' W 094°60'0 0.0
2017-Oct-13 15:58N 29°41' W 094°60'0 0.1
2017-Oct-13 15:30N 29°41' W 094°60'0 0.0
2017-Oct-13 14:35N 29°41' W 094°60'0 0.0
2017-Oct-13 14:17N 29°41' W 094°60'0 0.0
2017-Oct-13 12:59N 29°41' W 094°60'0 0.0
2017-Oct-13 12:22N 29°41' W 094°60'0 0.0
2017-Oct-13 11:54N 29°41' W 094°60'0 0.2
2017-Oct-13 11:30N 29°41' W 094°60'0 0.8
2017-Oct-13 11:00N 29°41' W 095°00'0 0.0
2017-Oct-13 10:30N 29°41' W 095°00'0 0.1
2017-Oct-13 10:00N 29°41' W 095°00'0 0.0
2017-Oct-13 09:30N 29°41' W 095°00'1 1.6
2017-Oct-13 09:00N 29°42' W 094°60'3 5.3
2017-Oct-13 08:30N 29°44' W 095°02'3 5.9
2017-Oct-13 07:58N 29°46' W 095°05'1 1.0
2017-Oct-13 06:52N 29°46' W 095°06'4 4.3
2017-Oct-13 06:01N 29°44' W 095°03'0 1.9
2017-Oct-13 06:00N 29°44' W 095°03'0 0.2
2017-Oct-13 05:30N 29°44' W 095°03'0 0.0
2017-Oct-13 05:00N 29°44' W 095°03'0 0.0
2017-Oct-13 04:30N 29°44' W 095°03'0 0.0
2017-Oct-13 03:59N 29°44' W 095°03'0 0.0
2017-Oct-13 03:16N 29°44' W 095°03'0 0.0
2017-Oct-13 02:57N 29°44' W 095°03'0 0.0
2017-Oct-13 02:15N 29°44' W 095°03'0 0.0
2017-Oct-13 01:58N 29°44' W 095°03'0 0.0
2017-Oct-13 01:30N 29°44' W 095°03'0 0.0
2017-Oct-13 00:58N 29°44' W 095°03'0 0.0
2017-Oct-13 00:31N 29°44' W 095°03'0 0.0
2017-Oct-13 00:00N 29°44' W 095°03'0 0.0
2017-Oct-12 23:19N 29°44' W 095°03'0 0.0
2017-Oct-12 22:58N 29°44' W 095°03'0 0.1
2017-Oct-12 22:27N 29°44' W 095°03'0 0.2
2017-Oct-12 22:00N 29°44' W 095°03'0 0.0
2017-Oct-12 21:30N 29°44' W 095°03'0 0.0
2017-Oct-12 21:00N 29°44' W 095°03'4 0.4
2017-Oct-12 11:21N 29°46' W 095°06'0 0.0
2017-Oct-12 06:46N 29°47' W 095°06'  
Track history (hours):
 
Tides and Currents Weather Stations Pressure Air Temp Water Temp Dewpoint Dewpoint Depression Visibility Wind Speed Wind Dir Waves Ship Positions

San Miguel

Owner: BUFFALO MARINE SERVICE INC, HOUSTON, TX. More information available from US FCC via Universal Licensing System and Coast Guard Vessel Documentation Center.

Last reported at 2017-Oct-22 06:26 UTC. Time now 2017-Oct-23 06:09 UTC.
Position N 29°46' W 095°05'.

Length 10 m; draft 2.5 m.

Type: Tug. MMSI: 366941840.

Date/timePositionNaut miles runAvg speedWind from/ knotsBaromVisibWave heightAir tempDewpointWater temp
2017-Oct-22 06:26N 29°46' W 095°05'3 6.9
2017-Oct-22 05:57N 29°44' W 095°02'3 6.2
2017-Oct-22 05:30N 29°42' W 094°59'4 7.7
2017-Oct-22 05:00N 29°38' W 094°58'2 5.0
2017-Oct-22 04:30N 29°37' W 095°00'0 0.0
2017-Oct-22 04:00N 29°37' W 095°00'0 0.0
2017-Oct-22 03:30N 29°37' W 095°00'0 0.0
2017-Oct-22 03:00N 29°37' W 095°00'0 0.0
2017-Oct-22 02:30N 29°37' W 095°00'0 0.0
2017-Oct-22 02:00N 29°37' W 095°00'0 0.0
2017-Oct-22 01:30N 29°37' W 095°00'0 0.0
2017-Oct-22 01:00N 29°37' W 095°00'0 0.0
2017-Oct-22 00:30N 29°37' W 095°00'0 0.0
2017-Oct-22 00:00N 29°37' W 095°00'0 0.0
2017-Oct-21 23:30N 29°37' W 095°00'1 1.5
2017-Oct-21 23:00N 29°37' W 095°01'3 5.0
2017-Oct-21 22:30N 29°37' W 094°58'3 6.1
2017-Oct-21 22:00N 29°40' W 094°59'4 6.8
2017-Oct-21 21:29N 29°43' W 095°01'4 6.7
2017-Oct-21 20:53N 29°46' W 095°04'2 6.5
2017-Oct-21 20:30N 29°44' W 095°07'5 7.0
2017-Oct-21 19:51N 29°44' W 095°12'3 7.1
2017-Oct-21 19:29N 29°43' W 095°15'2 3.1
2017-Oct-21 19:00N 29°43' W 095°16'0 0.2
2017-Oct-21 18:30N 29°43' W 095°17'0 0.0
2017-Oct-21 17:59N 29°43' W 095°17'0 0.0
2017-Oct-21 17:30N 29°43' W 095°17'0 0.0
2017-Oct-21 17:00N 29°43' W 095°17'0 0.0
2017-Oct-21 16:30N 29°43' W 095°17'0 0.0
2017-Oct-21 16:00N 29°43' W 095°17'0 0.0
2017-Oct-21 15:28N 29°43' W 095°17'0 0.0
2017-Oct-21 15:00N 29°43' W 095°17'0 0.0
2017-Oct-21 14:30N 29°43' W 095°17'0 0.0
2017-Oct-21 13:30N 29°43' W 095°17'0 0.0
2017-Oct-21 12:44N 29°43' W 095°17'0 0.0
2017-Oct-21 12:28N 29°43' W 095°17'0 0.0
2017-Oct-21 11:59N 29°43' W 095°17'0 0.0
2017-Oct-21 11:30N 29°43' W 095°17'0 0.0
2017-Oct-21 11:00N 29°43' W 095°17'0 0.0
2017-Oct-21 10:29N 29°43' W 095°17'0 0.0
2017-Oct-21 09:55N 29°43' W 095°17'1 1.2
2017-Oct-21 09:30N 29°43' W 095°16'3 5.6
2017-Oct-21 08:58N 29°44' W 095°13'1 1.1
2017-Oct-21 08:24N 29°44' W 095°12'0 0.1
2017-Oct-21 08:00N 29°44' W 095°12'0 0.1
2017-Oct-21 07:30N 29°44' W 095°12'0 0.0
2017-Oct-21 07:00N 29°44' W 095°12'0 0.0
2017-Oct-21 06:16N 29°44' W 095°12'0 0.1
2017-Oct-21 05:58N 29°44' W 095°12'0 0.0
2017-Oct-21 05:30N 29°44' W 095°12'0 0.0
2017-Oct-21 05:00N 29°44' W 095°12'0 0.0
2017-Oct-21 04:30N 29°44' W 095°12'0 0.0
2017-Oct-21 04:00N 29°44' W 095°12'0 0.0
2017-Oct-21 03:30N 29°44' W 095°12'0 0.0
2017-Oct-21 03:00N 29°44' W 095°12'0 0.0
2017-Oct-21 02:29N 29°44' W 095°12'0 0.0
2017-Oct-21 02:00N 29°44' W 095°12'0 0.0
2017-Oct-21 01:30N 29°44' W 095°12'0 0.0
2017-Oct-21 01:00N 29°44' W 095°12'0 0.0
2017-Oct-21 00:27N 29°44' W 095°12'0 0.0
2017-Oct-20 23:14N 29°44' W 095°12'0 0.1
2017-Oct-20 23:00N 29°44' W 095°12'1 1.1
2017-Oct-20 22:25N 29°44' W 095°13'2 4.9
2017-Oct-20 21:59N 29°43' W 095°15'1 2.7
2017-Oct-20 21:30N 29°43' W 095°16'0 0.1
2017-Oct-20 19:49N 29°43' W 095°17'0 0.0
2017-Oct-20 19:21N 29°43' W 095°17'0 0.0
2017-Oct-20 18:55N 29°43' W 095°17'0 0.0
2017-Oct-20 18:21N 29°43' W 095°17'0 0.0
2017-Oct-20 14:39N 29°43' W 095°17'0 0.0
2017-Oct-20 13:54N 29°43' W 095°17'0 0.0
2017-Oct-20 13:20N 29°43' W 095°17'0 0.0
2017-Oct-20 12:58N 29°43' W 095°17'0 0.0
2017-Oct-20 12:27N 29°43' W 095°17'0 0.0
2017-Oct-20 11:38N 29°43' W 095°17'0 0.0
2017-Oct-20 11:25N 29°43' W 095°17'0 0.0
2017-Oct-20 10:57N 29°43' W 095°17'0 0.0
2017-Oct-20 10:26N 29°43' W 095°17'0 0.0
2017-Oct-20 09:49N 29°43' W 095°17'0 0.0
2017-Oct-20 09:18N 29°43' W 095°17'0 0.0
2017-Oct-20 08:25N 29°43' W 095°17'0 0.0
2017-Oct-20 07:34N 29°43' W 095°17'0 0.0
2017-Oct-20 07:24N 29°43' W 095°17'0 0.0
2017-Oct-20 06:09N 29°43' W 095°17'0 0.0
2017-Oct-20 06:00N 29°43' W 095°17'0 0.0
2017-Oct-20 05:29N 29°43' W 095°17'0 0.0
2017-Oct-20 05:00N 29°43' W 095°17'0 0.0
2017-Oct-20 04:29N 29°43' W 095°17'0 0.0
2017-Oct-20 04:00N 29°43' W 095°17'0 0.0
2017-Oct-20 03:27N 29°43' W 095°17'0 0.0
2017-Oct-20 03:00N 29°43' W 095°17'0 0.0
2017-Oct-20 02:30N 29°43' W 095°17'0 0.0
2017-Oct-20 02:00N 29°43' W 095°17'0 0.0
2017-Oct-20 01:30N 29°43' W 095°17'0 0.0
2017-Oct-20 00:57N 29°43' W 095°17'0 0.7
2017-Oct-20 00:30N 29°43' W 095°16'0 0.6
2017-Oct-20 00:00N 29°43' W 095°17'0 0.0
2017-Oct-19 23:29N 29°43' W 095°17'0 0.0
2017-Oct-19 23:00N 29°43' W 095°17'0 0.0
2017-Oct-19 22:29N 29°43' W 095°17'0 0.0
2017-Oct-19 21:59N 29°43' W 095°17'0 0.0
2017-Oct-19 21:30N 29°43' W 095°17'0 0.0
2017-Oct-19 20:59N 29°43' W 095°17'0 0.0
2017-Oct-19 20:13N 29°43' W 095°17'0 0.0
2017-Oct-19 19:49N 29°43' W 095°17'0 0.0
2017-Oct-19 18:25N 29°43' W 095°17'0 0.0
2017-Oct-19 17:38N 29°43' W 095°17'0 0.0
2017-Oct-19 17:26N 29°43' W 095°17'0 0.0
2017-Oct-19 15:52N 29°43' W 095°17'0 0.0
2017-Oct-19 15:30N 29°43' W 095°17'0 0.0
2017-Oct-19 14:59N 29°43' W 095°17'0 0.0
2017-Oct-19 14:28N 29°43' W 095°17'0 0.0
2017-Oct-19 13:58N 29°43' W 095°17'0 0.0
2017-Oct-19 12:11N 29°43' W 095°17'0 0.0
2017-Oct-19 11:56N 29°43' W 095°17'0 0.0
2017-Oct-19 11:30N 29°43' W 095°17'0 0.0
2017-Oct-19 10:57N 29°43' W 095°17'0 0.0
2017-Oct-19 09:30N 29°43' W 095°17'0 0.0
2017-Oct-19 08:58N 29°43' W 095°17'0 0.0
2017-Oct-19 08:07N 29°43' W 095°17'0 0.0
2017-Oct-19 07:58N 29°43' W 095°17'0 0.0
2017-Oct-19 07:30N 29°43' W 095°17'0 0.0
2017-Oct-19 06:59N 29°43' W 095°17'0 0.0
2017-Oct-19 06:27N 29°43' W 095°17'0 0.0
2017-Oct-19 05:59N 29°43' W 095°17'0 0.0
2017-Oct-19 05:30N 29°43' W 095°17'0 0.0
2017-Oct-19 04:46N 29°43' W 095°17'0 0.0
2017-Oct-19 04:30N 29°43' W 095°17'0 0.0
2017-Oct-19 04:00N 29°43' W 095°17'0 0.0
2017-Oct-19 03:30N 29°43' W 095°17'0 0.0
2017-Oct-19 03:00N 29°43' W 095°17'0 0.0
2017-Oct-19 02:30N 29°43' W 095°17'0 0.0
2017-Oct-19 01:59N 29°43' W 095°17'0 0.0
2017-Oct-19 01:30N 29°43' W 095°17'0 0.0
2017-Oct-19 01:00N 29°43' W 095°17'0 0.0
2017-Oct-19 00:29N 29°43' W 095°17'0 0.0
2017-Oct-19 00:00N 29°43' W 095°17'0 0.0
2017-Oct-18 23:30N 29°43' W 095°17'0 0.0
2017-Oct-18 23:00N 29°43' W 095°17'0 0.0
2017-Oct-18 22:30N 29°43' W 095°17'0 0.0
2017-Oct-18 21:59N 29°43' W 095°17'0 0.0
2017-Oct-18 21:28N 29°43' W 095°17'0 0.0
2017-Oct-18 20:59N 29°43' W 095°17'0 0.0
2017-Oct-18 20:26N 29°43' W 095°17'0 0.0
2017-Oct-18 18:57N 29°43' W 095°17'0 0.0
2017-Oct-18 17:56N 29°43' W 095°17'0 0.0
2017-Oct-18 17:21N 29°43' W 095°17'0 0.5
2017-Oct-18 17:00N 29°43' W 095°16'6 4.9
2017-Oct-18 15:49N 29°45' W 095°10'3 0.4
2017-Oct-18 06:36N 29°45' W 095°06'0 3.1
2017-Oct-18 06:27N 29°45' W 095°06'3 6.4
2017-Oct-18 06:00N 29°45' W 095°10'3 6.4
2017-Oct-18 05:30N 29°43' W 095°13'3 5.7
2017-Oct-18 05:00N 29°43' W 095°16'0 0.1
2017-Oct-18 04:30N 29°43' W 095°17'0 0.0
2017-Oct-18 03:59N 29°43' W 095°17'0 0.0
2017-Oct-18 03:30N 29°43' W 095°17'0 0.0
2017-Oct-18 03:00N 29°43' W 095°17'0 0.0
2017-Oct-18 02:19N 29°43' W 095°17'0 0.0
2017-Oct-18 01:57N 29°43' W 095°17'0 0.0
2017-Oct-18 01:29N 29°43' W 095°17'0 0.0
2017-Oct-18 01:00N 29°43' W 095°17'0 0.1
2017-Oct-18 00:30N 29°43' W 095°16'2 3.7
2017-Oct-18 00:00N 29°45' W 095°17'0 0.0
2017-Oct-17 23:30N 29°45' W 095°17'0 0.0
2017-Oct-17 23:00N 29°45' W 095°17'0 0.0
2017-Oct-17 22:30N 29°45' W 095°17'0 0.3
2017-Oct-17 22:00N 29°45' W 095°17'2 3.5
2017-Oct-17 21:30N 29°43' W 095°17'0 0.0
2017-Oct-17 20:52N 29°43' W 095°17'0 0.0
2017-Oct-17 20:27N 29°43' W 095°17'0 0.0
2017-Oct-17 19:56N 29°43' W 095°17'0 0.0
2017-Oct-17 18:46N 29°43' W 095°17'0 0.0
2017-Oct-17 17:35N 29°43' W 095°17'0 0.1
2017-Oct-17 16:31N 29°43' W 095°16'0 4.6
2017-Oct-17 16:30N 29°43' W 095°16'1 1.9
2017-Oct-17 15:59N 29°44' W 095°17'1 1.9
2017-Oct-17 15:27N 29°43' W 095°17'0 0.0
2017-Oct-17 14:58N 29°43' W 095°17'0 0.0
2017-Oct-17 14:27N 29°43' W 095°17'2 3.8
2017-Oct-17 13:59N 29°45' W 095°17'2 3.5
2017-Oct-17 13:29N 29°43' W 095°17'0 0.0
2017-Oct-17 12:56N 29°43' W 095°17'0 0.0
2017-Oct-17 12:21N 29°43' W 095°17'0 0.0
2017-Oct-17 11:57N 29°43' W 095°17'0 0.0
2017-Oct-17 05:21N 29°43' W 095°17'0 0.0
2017-Oct-17 04:53N 29°43' W 095°17'0 0.0
2017-Oct-17 04:25N 29°43' W 095°17'0 0.0
2017-Oct-17 03:02N 29°43' W 095°17'0 0.0
2017-Oct-17 02:54N 29°43' W 095°17'0 0.0
2017-Oct-16 23:08N 29°43' W 095°17'0 0.0
2017-Oct-16 22:59N 29°43' W 095°17'2 3.8
2017-Oct-16 22:30N 29°45' W 095°17'0 0.0
2017-Oct-16 21:59N 29°45' W 095°17'0 0.0
2017-Oct-16 21:27N 29°45' W 095°17'0 0.0
2017-Oct-16 21:00N 29°45' W 095°17'0 0.0
2017-Oct-16 20:30N 29°45' W 095°17'2 3.0
2017-Oct-16 20:00N 29°44' W 095°16'0 0.6
2017-Oct-16 19:26N 29°43' W 095°16'0 0.2
2017-Oct-16 19:00N 29°43' W 095°16'1 1.5
2017-Oct-16 18:29N 29°44' W 095°15'2 3.4
2017-Oct-16 18:00N 29°44' W 095°14'4 4.6
2017-Oct-16 17:13N 29°44' W 095°10'2 5.1
2017-Oct-16 16:50N 29°44' W 095°07'4 3.4
2017-Oct-16 15:44N 29°44' W 095°03'0 0.0
2017-Oct-16 11:13N 29°44' W 095°03'0 0.0
2017-Oct-16 10:56N 29°44' W 095°03'0 0.0
2017-Oct-16 10:30N 29°44' W 095°03'0 0.0
2017-Oct-16 09:58N 29°44' W 095°03'0 0.0
2017-Oct-16 09:18N 29°44' W 095°03'0 0.0
2017-Oct-16 08:58N 29°44' W 095°03'0 0.0
2017-Oct-16 08:29N 29°44' W 095°03'0 0.0
2017-Oct-16 08:00N 29°44' W 095°03'0 0.0
2017-Oct-16 07:26N 29°44' W 095°03'0 0.0
2017-Oct-16 06:55N 29°44' W 095°03'0 0.2
2017-Oct-16 06:30N 29°44' W 095°03'0 0.0
2017-Oct-16 02:04N 29°44' W 095°03'0 0.0
2017-Oct-16 00:48N 29°44' W 095°03'0 0.0
2017-Oct-16 00:29N 29°44' W 095°03'0 0.0
2017-Oct-15 23:56N 29°44' W 095°03'0 0.0
2017-Oct-15 23:29N 29°44' W 095°03'0 0.0
2017-Oct-15 22:42N 29°44' W 095°03'0 0.0
2017-Oct-15 21:20N 29°44' W 095°03'0 0.0
2017-Oct-15 20:54N 29°44' W 095°03'0 0.0
2017-Oct-15 20:17N 29°44' W 095°03'0 0.0
2017-Oct-15 19:56N 29°44' W 095°03'0 0.0
2017-Oct-15 19:24N 29°44' W 095°03'0 0.0
2017-Oct-15 18:52N 29°44' W 095°03'0 0.0
2017-Oct-15 18:18N 29°44' W 095°03'0 0.0
2017-Oct-15 17:56N 29°44' W 095°03'4 0.3
2017-Oct-15 07:42N 29°46' W 095°06'1 2.0
2017-Oct-15 07:19N 29°46' W 095°05'0 1.6
2017-Oct-15 07:00N 29°45' W 095°06'1 0.1
2017-Oct-14 18:49N 29°47' W 095°06'0 0.0
2017-Oct-14 17:57N 29°47' W 095°06'0 0.0
2017-Oct-14 17:29N 29°47' W 095°06'0 0.0
2017-Oct-14 17:00N 29°47' W 095°06'0 0.0
2017-Oct-14 16:30N 29°47' W 095°06'0 0.0
2017-Oct-14 15:57N 29°47' W 095°06'0 0.0
2017-Oct-14 15:29N 29°47' W 095°06'0 0.0
2017-Oct-14 06:05N 29°46' W 095°06'0 0.4
2017-Oct-14 05:54N 29°47' W 095°06'0 0.1
2017-Oct-14 05:25N 29°47' W 095°06'0 0.5
2017-Oct-14 04:58N 29°46' W 095°06'2 3.0
2017-Oct-14 04:24N 29°45' W 095°06'3 0.3
2017-Oct-13 20:07N 29°44' W 095°03'2 5.7
2017-Oct-13 19:47N 29°43' W 095°01'1 5.0
2017-Oct-13 19:30N 29°42' W 095°00'1 0.4
2017-Oct-13 16:40N 29°41' W 094°60'0 0.0
2017-Oct-13 16:27N 29°41' W 094°60'0 0.0
2017-Oct-13 15:58N 29°41' W 094°60'0 0.1
2017-Oct-13 15:30N 29°41' W 094°60'0 0.0
2017-Oct-13 14:35N 29°41' W 094°60'0 0.0
2017-Oct-13 14:17N 29°41' W 094°60'0 0.0
2017-Oct-13 12:59N 29°41' W 094°60'0 0.0
2017-Oct-13 12:22N 29°41' W 094°60'0 0.0
2017-Oct-13 11:54N 29°41' W 094°60'0 0.2
2017-Oct-13 11:30N 29°41' W 094°60'0 0.8
2017-Oct-13 11:00N 29°41' W 095°00'0 0.0
2017-Oct-13 10:30N 29°41' W 095°00'0 0.1
2017-Oct-13 10:00N 29°41' W 095°00'0 0.0
2017-Oct-13 09:30N 29°41' W 095°00'1 1.6
2017-Oct-13 09:00N 29°42' W 094°60'3 5.3
2017-Oct-13 08:30N 29°44' W 095°02'3 5.9
2017-Oct-13 07:58N 29°46' W 095°05'1 1.0
2017-Oct-13 06:52N 29°46' W 095°06'4 4.3
2017-Oct-13 06:01N 29°44' W 095°03'0 1.9
2017-Oct-13 06:00N 29°44' W 095°03'0 0.2
2017-Oct-13 05:30N 29°44' W 095°03'0 0.0
2017-Oct-13 05:00N 29°44' W 095°03'0 0.0
2017-Oct-13 04:30N 29°44' W 095°03'0 0.0
2017-Oct-13 03:59N 29°44' W 095°03'0 0.0
2017-Oct-13 03:16N 29°44' W 095°03'0 0.0
2017-Oct-13 02:57N 29°44' W 095°03'0 0.0
2017-Oct-13 02:15N 29°44' W 095°03'0 0.0
2017-Oct-13 01:58N 29°44' W 095°03'0 0.0
2017-Oct-13 01:30N 29°44' W 095°03'0 0.0
2017-Oct-13 00:58N 29°44' W 095°03'0 0.0
2017-Oct-13 00:31N 29°44' W 095°03'0 0.0
2017-Oct-13 00:00N 29°44' W 095°03'0 0.0
2017-Oct-12 23:19N 29°44' W 095°03'0 0.0
2017-Oct-12 22:58N 29°44' W 095°03'0 0.1
2017-Oct-12 22:27N 29°44' W 095°03'0 0.2
2017-Oct-12 22:00N 29°44' W 095°03'0 0.0
2017-Oct-12 21:30N 29°44' W 095°03'0 0.0
2017-Oct-12 21:00N 29°44' W 095°03'4 0.4
2017-Oct-12 11:21N 29°46' W 095°06'0 0.0
2017-Oct-12 06:46N 29°47' W 095°06'  

Dump ship's entire track history